createdAt,value
2015-10-23T00:00:28.609Z,92.4
2015-10-23T00:01:28.330Z,92.5
2015-10-23T00:02:28.287Z,92.4
2015-10-23T00:03:28.461Z,92.5
2015-10-23T00:04:28.182Z,92.5
2015-10-23T00:05:28.123Z,92.5
2015-10-23T00:06:28.063Z,92.4
2015-10-23T00:07:28.018Z,92.5
2015-10-23T00:08:27.959Z,92.4
2015-10-23T00:09:27.915Z,92.6
2015-10-23T00:10:27.854Z,92.8
2015-10-23T00:11:27.795Z,92.9
2015-10-23T00:12:27.751Z,92.8
2015-10-23T00:13:27.706Z,92.6
2015-10-23T00:14:27.647Z,92.6
2015-10-23T00:15:27.822Z,92.5
2015-10-23T00:16:27.543Z,92.7
2015-10-23T00:17:27.499Z,92.9
2015-10-23T00:18:27.439Z,93
2015-10-23T00:19:27.378Z,93
2015-10-23T00:20:27.320Z,92.8
2015-10-23T00:21:27.276Z,92.6
2015-10-23T00:22:27.450Z,92.7
2015-10-23T00:23:27.172Z,92.6
2015-10-23T00:24:27.111Z,92.6
2015-10-23T00:25:27.067Z,92.6
2015-10-23T00:26:27.008Z,92.3
2015-10-23T00:27:26.979Z,92.1
2015-10-23T00:28:26.904Z,91.5
2015-10-23T00:29:26.844Z,91.8
2015-10-23T00:30:26.800Z,91.6
2015-10-23T00:31:26.975Z,91.9
2015-10-23T00:32:26.696Z,91.4
2015-10-23T00:33:26.636Z,91.6
2015-10-23T00:34:26.591Z,91.2
2015-10-23T00:35:26.533Z,91.2
2015-10-23T00:36:26.488Z,90.9
2015-10-23T00:37:26.428Z,90.9
2015-10-23T00:38:26.368Z,90.8
2015-10-23T00:39:26.309Z,90.4
2015-10-23T00:40:26.265Z,90.3
2015-10-23T00:41:26.221Z,90.9
2015-10-23T00:42:26.395Z,90.3
2015-10-23T00:43:26.101Z,90.2
2015-10-23T00:44:26.057Z,89.8
2015-10-23T00:45:26.029Z,89.7
2015-10-23T00:46:26.187Z,89.7
2015-10-23T00:47:25.909Z,89.9
2015-10-23T00:48:25.849Z,89.9
2015-10-23T00:49:25.789Z,89.6
2015-10-23T00:50:25.729Z,89.8
2015-10-23T00:51:25.685Z,89.6
2015-10-23T00:52:25.626Z,89.9
2015-10-23T00:53:25.582Z,89.6
2015-10-23T00:54:25.756Z,89.3
2015-10-23T00:55:25.712Z,89.6
2015-10-23T00:56:25.418Z,89.3
2015-10-23T00:57:25.311Z,89.1
2015-10-23T00:58:25.548Z,89.5
2015-10-23T00:59:25.269Z,89.4
2015-10-23T01:00:25.209Z,89.1
2015-10-23T01:01:25.150Z,89.6
2015-10-23T01:02:25.106Z,89.3
2015-10-23T01:03:25.281Z,89.7
2015-10-23T01:04:25.236Z,88.9
2015-10-23T01:05:24.958Z,89.4
2015-10-23T01:06:24.897Z,89.1
2015-10-23T01:07:24.854Z,89.2
2015-10-23T01:08:24.795Z,89.5
2015-10-23T01:09:24.734Z,89
2015-10-23T01:10:24.672Z,89.1
2015-10-23T01:11:24.628Z,89.2
2015-10-23T01:12:24.803Z,89.3
2015-10-23T01:13:24.523Z,88.5
2015-10-23T01:14:24.480Z,89
2015-10-23T01:15:24.420Z,89.1
2015-10-23T01:16:24.361Z,89
2015-10-23T01:17:24.316Z,88.8
2015-10-23T01:18:27.334Z,88.6
2015-10-23T01:19:24.211Z,88.7
2015-10-23T01:20:24.152Z,89.3
2015-10-23T01:21:23.358Z,88.9
2015-10-23T01:22:24.048Z,89
2015-10-23T01:23:24.004Z,89.1
2015-10-23T01:24:23.944Z,89.3
2015-10-23T01:25:23.899Z,89.1
2015-10-23T01:26:23.841Z,89
2015-10-23T01:27:23.796Z,89
2015-10-23T01:28:23.735Z,88.8
2015-10-23T01:29:23.676Z,88.9
2015-10-23T01:30:23.632Z,89.2
2015-10-23T01:31:23.572Z,89
2015-10-23T01:32:23.529Z,88.8
2015-10-23T01:33:23.469Z,88.8
2015-10-23T01:34:23.424Z,88.8
2015-10-23T01:35:23.365Z,89.4
2015-10-23T01:36:23.320Z,88.6
2015-10-23T01:37:23.495Z,89
2015-10-23T01:38:23.451Z,89.3
2015-10-23T01:39:23.157Z,88.5
2015-10-23T01:40:23.113Z,89.1
2015-10-23T01:41:23.053Z,89.1
2015-10-23T01:42:22.993Z,88.6
2015-10-23T01:43:22.949Z,88.4
2015-10-23T01:44:22.889Z,88.9
2015-10-23T01:45:22.830Z,88.8
2015-10-23T01:46:22.785Z,88.5
2015-10-23T01:47:22.726Z,88.3
2015-10-23T01:48:22.681Z,88.2
2015-10-23T01:49:22.621Z,88.9
2015-10-23T01:50:22.562Z,88.7
2015-10-23T01:51:22.752Z,88.5
2015-10-23T01:52:22.473Z,88.7
2015-10-23T01:53:22.414Z,89.1
2015-10-23T01:54:22.384Z,88.8
2015-10-23T01:55:22.545Z,88.6
2015-10-23T01:56:22.250Z,88.4
2015-10-23T01:57:22.190Z,88.5
2015-10-23T01:58:22.145Z,88.4
2015-10-23T01:59:22.102Z,88.5
2015-10-23T02:00:22.042Z,88.1
2015-10-23T02:01:21.998Z,87.9
2015-10-23T02:02:21.953Z,88.4
2015-10-23T02:03:21.878Z,88.4
2015-10-23T02:04:21.834Z,88.3
2015-10-23T02:05:21.774Z,88.9
2015-10-23T02:06:21.730Z,88.8
2015-10-23T02:07:21.670Z,88.8
2015-10-23T02:08:21.627Z,88.8
2015-10-23T02:09:21.567Z,88.7
2015-10-23T02:10:21.522Z,88.2
2015-10-23T02:11:21.463Z,88.4
2015-10-23T02:12:21.419Z,88.2
2015-10-23T02:13:21.358Z,88.5
2015-10-23T02:14:21.533Z,88.8
2015-10-23T02:15:21.255Z,88.7
2015-10-23T02:16:21.194Z,88.4
2015-10-23T02:17:21.151Z,87.8
2015-10-23T02:18:21.091Z,88.5
2015-10-23T02:19:21.047Z,88.1
2015-10-23T02:20:20.988Z,88.5
2015-10-23T02:21:20.943Z,88.5
2015-10-23T02:22:21.102Z,88.1
2015-10-23T02:23:20.824Z,87.9
2015-10-23T02:24:20.780Z,87.7
2015-10-23T02:25:20.719Z,88.1
2015-10-23T02:26:20.676Z,88.4
2015-10-23T02:27:20.615Z,88.1
2015-10-23T02:28:20.571Z,87.7
2015-10-23T02:29:20.512Z,88
2015-10-23T02:30:20.453Z,88.1
2015-10-23T02:31:20.408Z,88.3
2015-10-23T02:32:20.349Z,88.3
2015-10-23T02:33:20.305Z,87.9
2015-10-23T02:34:20.480Z,87.7
2015-10-23T02:35:20.201Z,87.7
2015-10-23T02:36:20.141Z,87.9
2015-10-23T02:37:20.097Z,87.9
2015-10-23T02:38:20.037Z,87.6
2015-10-23T02:39:19.977Z,87.6
2015-10-23T02:40:19.933Z,87.8
2015-10-23T02:41:19.874Z,87.8
2015-10-23T02:42:19.829Z,88.3
2015-10-23T02:43:20.004Z,88.2
2015-10-23T02:44:19.710Z,88.3
2015-10-23T02:45:19.650Z,88.6
2015-10-23T02:46:19.605Z,88.7
2015-10-23T02:47:19.562Z,88.3
2015-10-23T02:48:19.502Z,88.3
2015-10-23T02:49:19.458Z,88.3
2015-10-23T02:50:19.398Z,88.2
2015-10-23T02:51:19.354Z,88
2015-10-23T02:52:19.294Z,87.9
2015-10-23T02:53:19.249Z,88.2
2015-10-23T02:54:19.191Z,88.4
2015-10-23T02:55:18.380Z,88.1
2015-10-23T02:56:19.071Z,87.9
2015-10-23T02:57:19.026Z,87.9
2015-10-23T02:58:18.982Z,88
2015-10-23T02:59:18.923Z,88.3
2015-10-23T03:00:18.878Z,87.9
2015-10-23T03:01:18.803Z,87.9
2015-10-23T03:02:18.759Z,87.6
2015-10-23T03:03:18.699Z,88
2015-10-23T03:04:18.654Z,88.2
2015-10-23T03:05:18.595Z,87.9
2015-10-23T03:06:18.597Z,87.3
2015-10-23T03:07:18.489Z,87.7
2015-10-23T03:08:18.430Z,87.9
2015-10-23T03:09:18.356Z,87.6
2015-10-23T03:10:18.532Z,87.9
2015-10-23T03:11:18.224Z,87.6
2015-10-23T03:12:18.153Z,87.9
2015-10-23T03:13:18.103Z,87.9
2015-10-23T03:14:18.039Z,88
2015-10-23T03:15:17.989Z,87.9
2015-10-23T03:16:17.925Z,87.6
2015-10-23T03:17:17.877Z,87.9
2015-10-23T03:18:17.815Z,87.9
2015-10-23T03:19:17.754Z,87.3
2015-10-23T03:20:17.707Z,87.8
2015-10-23T03:21:17.708Z,87.6
2015-10-23T03:22:17.615Z,88
2015-10-23T03:23:17.540Z,88
2015-10-23T03:24:17.496Z,87.9
2015-10-23T03:25:17.435Z,87.9
2015-10-23T03:26:17.391Z,87.2
2015-10-23T03:27:17.330Z,87.6
2015-10-23T03:28:17.505Z,87.5
2015-10-23T03:29:17.226Z,87.4
2015-10-23T03:30:17.275Z,87.3
2015-10-23T03:31:17.121Z,88
2015-10-23T03:32:17.295Z,87.6
2015-10-23T03:33:17.016Z,87.6
2015-10-23T03:34:16.957Z,87.6
2015-10-23T03:35:16.913Z,87
2015-10-23T03:36:16.869Z,87.2
2015-10-23T03:37:16.809Z,87.2
2015-10-23T03:38:16.749Z,87.4
2015-10-23T03:39:16.705Z,87.3
2015-10-23T03:40:16.645Z,87.2
2015-10-23T03:41:16.586Z,87
2015-10-23T03:42:16.541Z,87.2
2015-10-23T03:43:16.497Z,87.2
2015-10-23T03:44:16.438Z,86.7
2015-10-23T03:45:16.377Z,86.9
2015-10-23T03:46:16.552Z,86.9
2015-10-23T03:47:16.274Z,87.4
2015-10-23T03:48:16.213Z,86.8
2015-10-23T03:49:16.482Z,87
2015-10-23T03:50:16.110Z,86.8
2015-10-23T03:51:16.066Z,87.2
2015-10-23T03:52:16.004Z,86.7
2015-10-23T03:53:15.959Z,86.9
2015-10-23T03:54:15.899Z,87.2
2015-10-23T03:55:15.839Z,86.7
2015-10-23T03:56:15.795Z,86.9
2015-10-23T03:57:15.751Z,86.8
2015-10-23T03:58:15.707Z,86.6
2015-10-23T03:59:15.631Z,87.1
2015-10-23T04:00:15.587Z,86.8
2015-10-23T04:01:15.528Z,87
2015-10-23T04:02:15.484Z,86.8
2015-10-23T04:03:15.423Z,87.1
2015-10-23T04:04:15.380Z,87
2015-10-23T04:05:15.320Z,86.5
2015-10-23T04:06:15.276Z,86.3
2015-10-23T04:07:15.215Z,86.5
2015-10-23T04:08:15.172Z,86.7
2015-10-23T04:09:15.096Z,86.7
2015-10-23T04:10:15.068Z,86.7
2015-10-23T04:11:15.008Z,86.4
2015-10-23T04:12:14.948Z,86.8
2015-10-23T04:13:15.122Z,86.3
2015-10-23T04:14:14.845Z,86.1
2015-10-23T04:15:14.800Z,85.9
2015-10-23T04:16:14.959Z,86.1
2015-10-23T04:17:14.681Z,86.3
2015-10-23T04:18:14.637Z,86.2
2015-10-23T04:19:14.577Z,86.2
2015-10-23T04:20:14.533Z,86.3
2015-10-23T04:21:14.472Z,86.4
2015-10-23T04:22:14.428Z,86.3
2015-10-23T04:23:14.369Z,86.4
2015-10-23T04:24:14.309Z,86.4
2015-10-23T04:25:14.249Z,86.1
2015-10-23T04:26:14.205Z,86.4
2015-10-23T04:27:14.144Z,86.9
2015-10-23T04:28:14.085Z,86.8
2015-10-23T04:29:14.041Z,86.5
2015-10-23T04:30:13.982Z,85.8
2015-10-23T04:31:13.937Z,86.3
2015-10-23T04:32:13.877Z,86.5
2015-10-23T04:33:13.818Z,86.7
2015-10-23T04:34:13.773Z,86.3
2015-10-23T04:35:13.713Z,86.3
2015-10-23T04:36:13.670Z,86.3
2015-10-23T04:37:13.626Z,86.1
2015-10-23T04:38:13.550Z,86
2015-10-23T04:39:13.521Z,85.8
2015-10-23T04:40:13.462Z,85.9
2015-10-23T04:41:13.402Z,86
2015-10-23T04:42:13.342Z,86.3
2015-10-23T04:43:13.298Z,86.2
2015-10-23T04:44:13.132Z,86.4
2015-10-23T04:45:13.179Z,86.1
2015-10-23T04:46:13.190Z,86.3
2015-10-23T04:47:13.099Z,86.2
2015-10-23T04:48:13.117Z,86.3
2015-10-23T04:49:12.964Z,86.4
2015-10-23T04:50:12.920Z,86.7
2015-10-23T04:51:13.111Z,86.7
2015-10-23T04:52:12.816Z,86.7
2015-10-23T04:53:12.990Z,86.3
2015-10-23T04:54:12.712Z,86.4
2015-10-23T04:55:12.652Z,86.5
2015-10-23T04:56:12.607Z,86.7
2015-10-23T04:57:12.549Z,87
2015-10-23T04:58:12.488Z,86.7
2015-10-23T04:59:12.429Z,86.5
2015-10-23T05:00:12.400Z,86.4
2015-10-23T05:01:12.341Z,86.4
2015-10-23T05:02:12.280Z,86.4
2015-10-23T05:03:12.221Z,86.6
2015-10-23T05:04:12.160Z,86.6
2015-10-23T05:05:12.117Z,86.5
2015-10-23T05:06:12.057Z,86.2
2015-10-23T05:07:12.013Z,86.3
2015-10-23T05:08:11.954Z,86.6
2015-10-23T05:09:11.909Z,86.3
2015-10-23T05:10:11.849Z,86
2015-10-23T05:11:11.789Z,86.2
2015-10-23T05:12:11.745Z,86.3
2015-10-23T05:13:11.698Z,86.4
2015-10-23T05:14:11.623Z,86.4
2015-10-23T05:15:11.594Z,86.6
2015-10-23T05:16:11.534Z,86.3
2015-10-23T05:17:11.474Z,86.4
2015-10-23T05:18:11.414Z,86.3
2015-10-23T05:19:11.370Z,86.1
2015-10-23T05:20:11.311Z,86.6
2015-10-23T05:21:11.297Z,86.6
2015-10-23T05:22:11.207Z,86.8
2015-10-23T05:23:11.163Z,86.2
2015-10-23T05:24:11.103Z,86
2015-10-23T05:25:11.075Z,86.3
2015-10-23T05:26:10.999Z,86.5
2015-10-23T05:27:10.939Z,86.4
2015-10-23T05:28:10.879Z,86.3
2015-10-23T05:29:10.836Z,86.4
2015-10-23T05:30:10.775Z,86.3
2015-10-23T05:31:10.730Z,86.7
2015-10-23T05:32:10.687Z,86.8
2015-10-23T05:33:10.627Z,86.8
2015-10-23T05:34:10.568Z,86.8
2015-10-23T05:35:10.508Z,86.5
2015-10-23T05:36:10.463Z,86.1
2015-10-23T05:37:10.404Z,86.5
2015-10-23T05:38:10.360Z,85.8
2015-10-23T05:39:10.299Z,85.8
2015-10-23T05:40:10.256Z,86.4
2015-10-23T05:41:10.197Z,86.8
2015-10-23T05:42:10.371Z,87
2015-10-23T05:43:10.092Z,86.6
2015-10-23T05:44:10.033Z,86.7
2015-10-23T05:45:09.988Z,86.7
2015-10-23T05:46:09.943Z,86.7
2015-10-23T05:47:09.885Z,87.2
2015-10-23T05:48:09.840Z,86.6
2015-10-23T05:49:09.765Z,86.6
2015-10-23T05:50:09.721Z,87
2015-10-23T05:51:09.660Z,86.6
2015-10-23T05:52:09.835Z,86.6
2015-10-23T05:53:09.557Z,86.4
2015-10-23T05:54:09.513Z,85.9
2015-10-23T05:55:09.453Z,86.4
2015-10-23T05:56:09.409Z,86.5
2015-10-23T05:57:09.348Z,86.4
2015-10-23T05:58:09.523Z,86.3
2015-10-23T05:59:09.245Z,86
2015-10-23T06:00:09.185Z,86.1
2015-10-23T06:01:09.142Z,86.5
2015-10-23T06:02:09.097Z,86.2
2015-10-23T06:03:09.022Z,86.8
2015-10-23T06:04:08.978Z,86.5
2015-10-23T06:05:08.917Z,86.1
2015-10-23T06:06:08.873Z,86.3
2015-10-23T06:07:08.814Z,86.6
2015-10-23T06:08:08.989Z,86.7
2015-10-23T06:09:08.709Z,86.7
2015-10-23T06:10:08.650Z,87.1
2015-10-23T06:11:08.684Z,86.8
2015-10-23T06:12:08.547Z,86.8
2015-10-23T06:13:08.517Z,86.9
2015-10-23T06:14:08.442Z,86.9
2015-10-23T06:15:08.382Z,86.6
2015-10-23T06:16:08.339Z,87.1
2015-10-23T06:17:08.278Z,86.7
2015-10-23T06:18:08.219Z,87.2
2015-10-23T06:19:08.191Z,86.7
2015-10-23T06:20:08.114Z,86.7
2015-10-23T06:21:08.071Z,86.8
2015-10-23T06:22:08.027Z,87.3
2015-10-23T06:23:07.967Z,86.9
2015-10-23T06:24:07.922Z,86.6
2015-10-23T06:25:07.847Z,86.6
2015-10-23T06:26:07.803Z,86.7
2015-10-23T06:27:07.743Z,86.5
2015-10-23T06:28:07.699Z,86.7
2015-10-23T06:29:07.874Z,86.7
2015-10-23T06:30:07.595Z,86.3
2015-10-23T06:31:07.535Z,86.9
2015-10-23T06:32:07.491Z,86.8
2015-10-23T06:33:07.431Z,86.3
2015-10-23T06:34:07.387Z,85.6
2015-10-23T06:35:07.324Z,85.5
2015-10-23T06:36:07.265Z,85.4
2015-10-23T06:37:07.237Z,85.2
2015-10-23T06:38:07.161Z,85.5
2015-10-23T06:39:07.132Z,85.5
2015-10-23T06:40:07.057Z,85.6
2015-10-23T06:41:07.013Z,85
2015-10-23T06:42:06.954Z,85.4
2015-10-23T06:43:06.909Z,84.5
2015-10-23T06:44:06.849Z,83.9
2015-10-23T06:45:06.804Z,84.9
2015-10-23T06:46:06.745Z,84.4
2015-10-23T06:47:06.685Z,83.8
2015-10-23T06:48:06.860Z,83.9
2015-10-23T06:49:06.581Z,83.2
2015-10-23T06:50:06.522Z,83.1
2015-10-23T06:51:06.477Z,84
2015-10-23T06:52:06.652Z,83.8
2015-10-23T06:53:06.373Z,83.4
2015-10-23T06:54:06.314Z,83.6
2015-10-23T06:55:06.254Z,82.6
2015-10-23T06:56:06.209Z,82.9
2015-10-23T06:57:06.166Z,82.9
2015-10-23T06:58:06.106Z,83.7
2015-10-23T06:59:06.062Z,84.5
2015-10-23T07:00:06.002Z,84
2015-10-23T07:01:05.958Z,83.7
2015-10-23T07:02:05.898Z,82.9
2015-10-23T07:03:05.853Z,82.7
2015-10-23T07:04:05.794Z,83.6
2015-10-23T07:05:05.734Z,82.5
2015-10-23T07:06:05.690Z,82.2
2015-10-23T07:07:05.630Z,80.6
2015-10-23T07:08:05.571Z,81.1
2015-10-23T07:09:05.527Z,80.8
2015-10-23T07:10:05.483Z,82
2015-10-23T07:11:05.422Z,81.5
2015-10-23T07:12:05.394Z,81.7
2015-10-23T07:13:05.319Z,81.5
2015-10-23T07:14:05.274Z,82.2
2015-10-23T07:15:05.215Z,80.3
2015-10-23T07:16:05.155Z,81.5
2015-10-23T07:17:05.110Z,81.2
2015-10-23T07:18:05.051Z,80
2015-10-23T07:19:04.991Z,81
2015-10-23T07:20:04.947Z,80.7
2015-10-23T07:21:04.902Z,81.3
2015-10-23T07:22:04.843Z,80.4
2015-10-23T07:23:04.799Z,80.4
2015-10-23T07:24:04.723Z,81.2
2015-10-23T07:25:04.680Z,80.7
2015-10-23T07:26:03.885Z,81.6
2015-10-23T07:27:04.576Z,81
2015-10-23T07:28:04.751Z,81.2
2015-10-23T07:29:04.471Z,80.3
2015-10-23T07:30:04.413Z,81.6
2015-10-23T07:31:04.368Z,81.4
2015-10-23T07:32:04.307Z,81.2
2015-10-23T07:33:04.248Z,80.8
2015-10-23T07:34:04.204Z,79.6
2015-10-23T07:35:04.160Z,80
2015-10-23T07:36:04.100Z,81.1
2015-10-23T07:37:04.040Z,80.3
2015-10-23T07:38:03.996Z,80.4
2015-10-23T07:39:03.937Z,81.1
2015-10-23T07:40:03.876Z,80.3
2015-10-23T07:41:03.832Z,80.4
2015-10-23T07:42:03.789Z,79.9
2015-10-23T07:43:03.728Z,80
2015-10-23T07:44:03.685Z,80.2
2015-10-23T07:45:03.625Z,80.5
2015-10-23T07:46:03.564Z,80.1
2015-10-23T07:47:03.505Z,80.4
2015-10-23T07:48:03.461Z,79.2
2015-10-23T07:49:03.416Z,79.2
2015-10-23T07:50:03.591Z,79.3
2015-10-23T07:51:03.297Z,80.1
2015-10-23T07:52:03.269Z,80.2
2015-10-23T07:53:03.191Z,79.7
2015-10-23T07:54:03.146Z,79.6
2015-10-23T07:55:03.102Z,78.4
2015-10-23T07:56:03.027Z,78.7
2015-10-23T07:57:02.982Z,78.9
2015-10-23T07:58:03.158Z,78.3
2015-10-23T07:59:02.878Z,79.9
2015-10-23T08:00:02.819Z,79.9
2015-10-23T08:01:02.774Z,78.8
2015-10-23T08:02:02.715Z,78.1
2015-10-23T08:03:02.514Z,78.5
2015-10-23T08:04:02.611Z,78.5
2015-10-23T08:05:02.566Z,78.7
2015-10-23T08:06:02.507Z,78
2015-10-23T08:07:02.463Z,79.8
2015-10-23T08:08:02.403Z,79.3
2015-10-23T08:09:02.344Z,79.2
2015-10-23T08:10:02.299Z,78.4
2015-10-23T08:11:02.240Z,78.8
2015-10-23T08:12:02.195Z,78.3
2015-10-23T08:13:02.135Z,78.8
2015-10-23T08:14:02.091Z,78.5
2015-10-23T08:15:02.032Z,78.9
2015-10-23T08:16:01.972Z,78.8
2015-10-23T08:17:01.927Z,80
2015-10-23T08:18:01.868Z,79.2
2015-10-23T08:19:01.840Z,77.7
2015-10-23T08:20:01.982Z,78.3
2015-10-23T08:21:01.720Z,78.2
2015-10-23T08:22:01.660Z,78.1
2015-10-23T08:23:01.601Z,78.4
2015-10-23T08:24:01.557Z,79.1
2015-10-23T08:25:01.497Z,78.1
2015-10-23T08:26:01.437Z,77.4
2015-10-23T08:27:01.409Z,77.8
2015-10-23T08:28:01.568Z,77.2
2015-10-23T08:29:01.290Z,77.3
2015-10-23T08:30:01.229Z,77.2
2015-10-23T08:31:01.184Z,77.4
2015-10-23T08:32:01.125Z,77.9
2015-10-23T08:33:01.066Z,77.4
2015-10-23T08:34:01.021Z,76.6
2015-10-23T08:35:00.962Z,77.5
2015-10-23T08:36:00.902Z,77.3
2015-10-23T08:37:00.858Z,77.1
2015-10-23T08:38:00.798Z,76.8
2015-10-23T08:39:00.754Z,76.3
2015-10-23T08:40:00.695Z,77.1
2015-10-23T08:41:00.651Z,76.8
2015-10-23T08:42:00.590Z,77.1
2015-10-23T08:43:00.546Z,76.9
2015-10-23T08:44:00.486Z,76.5
2015-10-23T08:45:00.439Z,76.3
2015-10-23T08:46:00.614Z,75.9
2015-10-23T08:47:00.336Z,76.5
2015-10-23T08:48:00.275Z,76.6
2015-10-23T08:49:00.232Z,76
2015-10-23T08:50:00.172Z,76.8
2015-10-23T08:51:00.112Z,76.7
2015-10-23T08:52:00.068Z,77.3
2015-10-23T08:53:00.024Z,77.3
2015-10-23T08:53:59.964Z,77.3
2015-10-23T08:54:59.904Z,76.5
2015-10-23T08:55:59.844Z,76.8
2015-10-23T08:56:59.816Z,76.9
2015-10-23T08:57:59.756Z,76.6
2015-10-23T08:58:59.697Z,77.5
2015-10-23T08:59:59.653Z,78
2015-10-23T09:00:59.592Z,77.2
2015-10-23T09:01:59.548Z,76.9
2015-10-23T09:02:59.488Z,77.1
2015-10-23T09:03:59.428Z,77
2015-10-23T09:04:59.401Z,76.5
2015-10-23T09:05:59.325Z,76.3
2015-10-23T09:06:59.280Z,75.3
2015-10-23T09:07:59.222Z,75.9
2015-10-23T09:08:59.178Z,75.3
2015-10-23T09:09:59.133Z,76.2
2015-10-23T09:10:59.073Z,75.9
2015-10-23T09:11:59.014Z,75.2
2015-10-23T09:12:58.969Z,75
2015-10-23T09:13:58.910Z,75.9
2015-10-23T09:14:58.865Z,75.9
2015-10-23T09:15:59.041Z,76.3
2015-10-23T09:16:58.762Z,76
2015-10-23T09:17:58.703Z,76.5
2015-10-23T09:18:58.642Z,76.7
2015-10-23T09:19:58.598Z,76.1
2015-10-23T09:20:58.538Z,76.7
2015-10-23T09:21:58.494Z,77.1
2015-10-23T09:22:58.450Z,77.1
2015-10-23T09:23:58.390Z,74.8
2015-10-23T09:24:58.346Z,75.9
2015-10-23T09:25:58.286Z,75.7
2015-10-23T09:26:58.227Z,75.5
2015-10-23T09:27:58.182Z,76.5
2015-10-23T09:28:58.122Z,76.6
2015-10-23T09:29:58.079Z,76.5
2015-10-23T09:30:58.019Z,75.5
2015-10-23T09:31:57.974Z,74.2
2015-10-23T09:32:57.915Z,74.6
2015-10-23T09:33:57.868Z,74.6
2015-10-23T09:34:57.807Z,75.2
2015-10-23T09:35:57.764Z,75.2
2015-10-23T09:36:57.704Z,75.8
2015-10-23T09:37:57.660Z,75.4
2015-10-23T09:38:57.601Z,75.7
2015-10-23T09:39:57.540Z,74.9
2015-10-23T09:40:57.496Z,75.2
2015-10-23T09:41:57.452Z,74.8
2015-10-23T09:42:57.392Z,74.6
2015-10-23T09:43:57.332Z,74.1
2015-10-23T09:44:57.274Z,75.2
2015-10-23T09:45:57.229Z,75.1
2015-10-23T09:46:57.169Z,76
2015-10-23T09:47:57.140Z,75.8
2015-10-23T09:48:57.081Z,74.8
2015-10-23T09:49:57.021Z,75.3
2015-10-23T09:50:56.976Z,74.1
2015-10-23T09:51:56.917Z,73.9
2015-10-23T09:52:56.857Z,74.9
2015-10-23T09:53:56.813Z,74
2015-10-23T09:54:56.754Z,73.9
2015-10-23T09:55:56.710Z,73.6
2015-10-23T09:56:56.665Z,73.9
2015-10-23T09:57:56.614Z,73.7
2015-10-23T09:58:56.553Z,73.9
2015-10-23T09:59:56.495Z,74.2
2015-10-23T10:00:56.450Z,74.5
2015-10-23T10:01:56.390Z,74.1
2015-10-23T10:02:56.346Z,73.5
2015-10-23T10:03:56.287Z,73.7
2015-10-23T10:04:56.476Z,73.5
2015-10-23T10:05:56.198Z,72.4
2015-10-23T10:06:56.138Z,73.8
2015-10-23T10:07:56.079Z,73.8
2015-10-23T10:08:56.034Z,73.3
2015-10-23T10:09:56.209Z,72.7
2015-10-23T10:10:55.931Z,71.6
2015-10-23T10:11:55.870Z,72.5
2015-10-23T10:12:55.826Z,71.4
2015-10-23T10:13:55.767Z,72.1
2015-10-23T10:14:55.722Z,72
2015-10-23T10:15:55.663Z,72.3
2015-10-23T10:16:55.619Z,71.8
2015-10-23T10:17:55.558Z,72.1
2015-10-23T10:18:55.499Z,72.7
2015-10-23T10:19:55.470Z,73
2015-10-23T10:20:55.411Z,74
2015-10-23T10:21:55.348Z,73.7
2015-10-23T10:22:55.305Z,74
2015-10-23T10:23:55.245Z,73.7
2015-10-23T10:24:55.185Z,73.1
2015-10-23T10:25:55.141Z,73.5
2015-10-23T10:26:55.081Z,73
2015-10-23T10:27:55.036Z,73.4
2015-10-23T10:28:54.977Z,71.8
2015-10-23T10:29:54.932Z,72.5
2015-10-23T10:30:55.108Z,73.3
2015-10-23T10:31:54.829Z,73
2015-10-23T10:32:54.785Z,72.7
2015-10-23T10:33:54.725Z,72.8
2015-10-23T10:34:54.666Z,73.3
2015-10-23T10:35:54.622Z,72.9
2015-10-23T10:36:54.561Z,73.5
2015-10-23T10:37:54.517Z,73.6
2015-10-23T10:38:54.458Z,73.5
2015-10-23T10:39:54.413Z,73
2015-10-23T10:40:54.354Z,73.4
2015-10-23T10:41:54.310Z,73
2015-10-23T10:42:54.250Z,73.4
2015-10-23T10:43:54.441Z,71.6
2015-10-23T10:44:54.146Z,72.2
2015-10-23T10:45:54.336Z,72
2015-10-23T10:46:54.057Z,73.1
2015-10-23T10:47:53.998Z,71.6
2015-10-23T10:48:53.938Z,72.5
2015-10-23T10:49:53.893Z,73.1
2015-10-23T10:50:53.834Z,72.7
2015-10-23T10:51:53.790Z,71.6
2015-10-23T10:52:53.730Z,71.2
2015-10-23T10:53:53.702Z,71.5
2015-10-23T10:54:53.626Z,71.8
2015-10-23T10:55:53.566Z,71.6
2015-10-23T10:56:53.757Z,70.9
2015-10-23T10:57:53.479Z,70.7
2015-10-23T10:58:53.419Z,71.5
2015-10-23T10:59:53.359Z,71.3
2015-10-23T11:00:53.315Z,71
2015-10-23T11:01:53.271Z,71
2015-10-23T11:02:53.210Z,70.2
2015-10-23T11:03:53.168Z,70.7
2015-10-23T11:04:53.107Z,70.2
2015-10-23T11:05:53.062Z,70.8
2015-10-23T11:06:53.238Z,70.8
2015-10-23T11:07:52.956Z,70
2015-10-23T11:08:52.897Z,70.2
2015-10-23T11:09:52.835Z,70.4
2015-10-23T11:10:53.025Z,69.8
2015-10-23T11:11:52.747Z,70.3
2015-10-23T11:12:52.687Z,69.9
2015-10-23T11:13:52.626Z,69
2015-10-23T11:14:52.583Z,69.1
2015-10-23T11:15:52.523Z,69.1
2015-10-23T11:16:52.479Z,69.6
2015-10-23T11:17:52.418Z,68.9
2015-10-23T11:18:52.374Z,68.1
2015-10-23T11:19:52.315Z,67.9
2015-10-23T11:20:52.271Z,67.3
2015-10-23T11:21:52.215Z,67.7
2015-10-23T11:22:52.156Z,68.5
2015-10-23T11:23:52.112Z,68.8
2015-10-23T11:24:52.287Z,68.3
2015-10-23T11:25:52.009Z,68.8
2015-10-23T11:26:51.948Z,68.3
2015-10-23T11:27:51.904Z,68.3
2015-10-23T11:28:51.860Z,68.8
2015-10-23T11:29:51.801Z,69.2
2015-10-23T11:30:51.741Z,69.5
2015-10-23T11:31:51.697Z,69.9
2015-10-23T11:32:51.653Z,70.1
2015-10-23T11:33:51.592Z,70.2
2015-10-23T11:34:51.548Z,68.6
2015-10-23T11:35:51.489Z,68.1
2015-10-23T11:36:51.445Z,67.7
2015-10-23T11:37:51.384Z,68.3
2015-10-23T11:38:51.342Z,68.8
2015-10-23T11:39:51.281Z,68.6
2015-10-23T11:40:51.237Z,68
2015-10-23T11:41:51.177Z,68
2015-10-23T11:42:51.133Z,67.7
2015-10-23T11:43:51.073Z,66.7
2015-10-23T11:44:51.029Z,68.1
2015-10-23T11:45:50.970Z,67.7
2015-10-23T11:46:50.176Z,68.3
2015-10-23T11:47:50.866Z,68.8
2015-10-23T11:48:50.806Z,68.7
2015-10-23T11:49:50.761Z,68.4
2015-10-23T11:50:50.702Z,68.3
2015-10-23T11:51:50.658Z,68.5
2015-10-23T11:52:50.614Z,68.9
2015-10-23T11:53:50.553Z,68.7
2015-10-23T11:54:50.494Z,68.1
2015-10-23T11:55:50.684Z,68.2
2015-10-23T11:56:50.391Z,68.1
2015-10-23T11:57:50.347Z,69
2015-10-23T11:58:50.286Z,68.3
2015-10-23T11:59:50.477Z,68.1
2015-10-23T12:00:50.180Z,67.6
2015-10-23T12:01:50.370Z,68
2015-10-23T12:02:50.075Z,67.7
2015-10-23T12:03:50.032Z,68.3
2015-10-23T12:04:49.971Z,68.6
2015-10-23T12:05:49.912Z,69.1
2015-10-23T12:06:49.868Z,68.8
2015-10-23T12:07:49.808Z,69.1
2015-10-23T12:08:49.764Z,68.5
2015-10-23T12:09:49.719Z,69.6
2015-10-23T12:10:49.660Z,68.7
2015-10-23T12:11:49.600Z,69.1
2015-10-23T12:12:49.790Z,69.9
2015-10-23T12:13:49.509Z,70.1
2015-10-23T12:14:49.438Z,69.9
2015-10-23T12:15:49.370Z,70.6
2015-10-23T12:16:49.549Z,70.5
2015-10-23T12:17:49.245Z,69.7
2015-10-23T12:18:49.195Z,69.4
2015-10-23T12:19:49.132Z,69.9
2015-10-23T12:20:49.084Z,69.7
2015-10-23T12:21:49.036Z,69.7
2015-10-23T12:22:48.973Z,69.3
2015-10-23T12:23:48.927Z,69.6
2015-10-23T12:24:49.100Z,70.2
2015-10-23T12:25:48.805Z,69.7
2015-10-23T12:26:48.759Z,68.7
2015-10-23T12:27:48.714Z,68.9
2015-10-23T12:28:48.654Z,69.1
2015-10-23T12:29:48.610Z,69.1
2015-10-23T12:30:48.549Z,69.2
2015-10-23T12:31:48.489Z,68.5
2015-10-23T12:32:48.289Z,68.9
2015-10-23T12:33:48.400Z,69.2
2015-10-23T12:34:48.340Z,69.1
2015-10-23T12:35:48.296Z,68.4
2015-10-23T12:36:48.251Z,67.7
2015-10-23T12:37:48.176Z,68
2015-10-23T12:38:48.131Z,68.7
2015-10-23T12:39:48.071Z,67.9
2015-10-23T12:40:48.027Z,68
2015-10-23T12:41:47.812Z,67.2
2015-10-23T12:42:47.924Z,67.1
2015-10-23T12:43:47.879Z,66.7
2015-10-23T12:44:47.820Z,67.4
2015-10-23T12:45:47.760Z,68.3
2015-10-23T12:46:47.700Z,68.3
2015-10-23T12:47:48.109Z,68.2
2015-10-23T12:48:47.609Z,68.5
2015-10-23T12:49:47.548Z,68.9
2015-10-23T12:50:47.504Z,69.5
2015-10-23T12:51:47.445Z,69.5
2015-10-23T12:52:47.385Z,69.9
2015-10-23T12:53:47.342Z,69.9
2015-10-23T12:54:47.281Z,70.5
2015-10-23T12:55:47.222Z,70.7
2015-10-23T12:56:47.192Z,70.7
2015-10-23T12:57:47.134Z,70.6
2015-10-23T12:58:47.073Z,70.7
2015-10-23T12:59:47.014Z,70.3
2015-10-23T13:00:46.969Z,70.6
2015-10-23T13:01:46.926Z,70.3
2015-10-23T13:02:46.882Z,70
2015-10-23T13:03:46.852Z,71.2
2015-10-23T13:04:46.762Z,70.9
2015-10-23T13:05:46.718Z,70.4
2015-10-23T13:06:46.673Z,69.7
2015-10-23T13:07:46.597Z,67.7
2015-10-23T13:08:46.569Z,67.1
2015-10-23T13:09:45.760Z,67.6
2015-10-23T13:10:46.450Z,65.9
2015-10-23T13:11:46.390Z,65.1
2015-10-23T13:12:46.347Z,65.6
2015-10-23T13:13:46.303Z,64.4
2015-10-23T13:14:46.241Z,64.5
2015-10-23T13:15:46.197Z,63.9
2015-10-23T13:16:46.138Z,62.2
2015-10-23T13:17:46.094Z,63
2015-10-23T13:18:46.035Z,59.4
2015-10-23T13:19:45.991Z,59.7
2015-10-23T13:20:45.961Z,59.7
2015-10-23T13:21:45.886Z,58.9
2015-10-23T13:22:45.842Z,58